Time;durP1;ratioP1;P1;durP2;ratioP2;P2;SDS_P1;SDS_P2;PMS_P1;PMS_P2;Temp;Humidity;BMP_temperature;BMP_pressure;BME280_temperature;BME280_humidity;BME280_pressure;Samples;Min_cycle;Max_cycle;Signal;HPM_P1;HPM_P2
2021/04/14 02:46:21;;;;;;;30.33;12.25;;;5.00;99.80;;;;;;5327103;24;20421;-70
2021/04/14 02:48:51;;;;;;;25.52;10.85;;;5.00;99.80;;;;;;4760931;30;20036;-70
2021/04/14 02:51:18;;;;;;;26.98;10.73;;;5.00;99.80;;;;;;4745310;30;20055;-70
2021/04/14 02:53:43;;;;;;;22.17;9.77;;;5.10;99.50;;;;;;4760007;30;20030;-70
2021/04/14 02:56:09;;;;;;;24.00;9.02;;;5.10;99.40;;;;;;4756033;30;20051;-70
2021/04/14 02:58:35;;;;;;;23.45;9.27;;;5.20;99.40;;;;;;4760545;30;20070;-70
2021/04/14 03:01:02;;;;;;;19.25;8.95;;;5.10;98.80;;;;;;4761650;30;20036;-70
2021/04/14 03:03:28;;;;;;;19.50;9.25;;;5.10;98.80;;;;;;4775261;30;20047;-70
2021/04/14 03:05:54;;;;;;;19.92;7.57;;;5.00;98.80;;;;;;4760322;30;20032;-70
2021/04/14 03:08:20;;;;;;;19.85;7.82;;;5.10;98.90;;;;;;4761474;30;20047;-70
2021/04/14 03:10:46;;;;;;;19.27;8.25;;;5.00;98.90;;;;;;4761321;30;20032;-70
2021/04/14 03:13:13;;;;;;;22.23;7.78;;;5.00;98.90;;;;;;4761505;30;20078;-69
2021/04/14 03:15:40;;;;;;;16.73;8.27;;;5.10;98.60;;;;;;4762680;30;20285;-70
2021/04/14 03:18:08;;;;;;;20.65;9.48;;;5.10;99.00;;;;;;4748526;30;20082;-72
2021/04/14 03:20:34;;;;;;;17.70;8.65;;;5.10;98.80;;;;;;4764657;30;20054;-70
2021/04/14 03:23:00;;;;;;;23.80;9.05;;;5.20;99.00;;;;;;4765046;30;20212;-70
2021/04/14 03:25:29;;;;;;;24.25;9.55;;;5.20;99.00;;;;;;4765173;30;20020;-70
2021/04/14 03:27:54;;;;;;;22.50;9.45;;;5.20;99.10;;;;;;4763511;30;20389;-70
2021/04/14 03:30:21;;;;;;;22.02;10.32;;;5.20;99.00;;;;;;4764786;30;20024;-70
2021/04/14 03:32:47;;;;;;;21.73;10.70;;;5.30;99.00;;;;;;4764826;30;20032;-70
2021/04/14 03:35:14;;;;;;;19.98;10.60;;;5.30;99.00;;;;;;4763214;30;20099;-69
2021/04/14 03:37:39;;;;;;;;;;;5.40;98.80;;;;;;4764935;30;20051;-70
2021/04/14 03:40:06;;;;;;;24.93;10.57;;;5.40;98.80;;;;;;4764489;30;19914;-69
2021/04/14 03:42:31;;;;;;;21.50;12.60;;;5.30;98.70;;;;;;4764544;30;20343;-70
2021/04/14 03:44:59;;;;;;;25.50;12.77;;;5.20;99.00;;;;;;4763573;30;20052;-70
2021/04/14 03:47:26;;;;;;;21.52;11.77;;;5.20;99.00;;;;;;4762492;30;20093;-70
2021/04/14 03:49:52;;;;;;;23.77;12.75;;;5.10;99.10;;;;;;4764892;30;20028;-70
2021/04/14 03:52:19;;;;;;;31.63;13.63;;;5.10;99.10;;;;;;4764629;30;20271;-69
2021/04/14 03:54:45;;;;;;;21.75;12.60;;;5.20;99.20;;;;;;4778461;30;20060;-69
2021/04/14 03:57:11;;;;;;;24.63;12.68;;;5.20;99.00;;;;;;4764488;30;20035;-69
2021/04/14 03:59:36;;;;;;;26.73;13.65;;;5.20;98.90;;;;;;4763372;30;20039;-69
2021/04/14 04:02:02;;;;;;;22.77;12.60;;;5.20;98.90;;;;;;4764378;30;20211;-69
2021/04/14 04:04:28;;;;;;;23.30;11.93;;;5.20;98.80;;;;;;4764765;30;20412;-69
2021/04/14 04:06:54;;;;;;;22.67;13.10;;;5.20;98.80;;;;;;4763153;30;20040;-70
2021/04/14 04:09:19;;;;;;;22.95;13.00;;;5.20;98.70;;;;;;4764817;30;20318;-70
2021/04/14 04:11:45;;;;;;;26.40;13.98;;;5.30;98.70;;;;;;4763192;30;20228;-69
2021/04/14 04:14:11;;;;;;;27.58;13.05;;;5.30;98.50;;;;;;4763282;30;20059;-69
2021/04/14 04:16:37;;;;;;;21.65;10.77;;;5.30;98.50;;;;;;4763116;30;20290;-69
2021/04/14 04:19:03;;;;;;;26.92;13.90;;;5.20;98.20;;;;;;4748527;30;20078;-69
2021/04/14 04:21:28;;;;;;;25.10;12.57;;;5.20;98.30;;;;;;4764205;30;20067;-69
2021/04/14 04:23:54;;;;;;;18.98;12.45;;;5.20;98.40;;;;;;4764235;30;20434;-69
2021/04/14 04:26:20;;;;;;;24.52;13.43;;;5.20;98.50;;;;;;4762733;30;20059;-69
2021/04/14 04:28:46;;;;;;;24.80;12.80;;;5.30;98.50;;;;;;4763030;30;20039;-69
2021/04/14 04:31:13;;;;;;;24.60;13.32;;;5.30;98.40;;;;;;4763028;30;20095;-69
2021/04/14 04:33:39;;;;;;;;;;;5.30;98.30;;;;;;4764051;30;20342;-69
2021/04/14 04:36:05;;;;;;;22.80;12.43;;;5.30;98.20;;;;;;4763860;30;19910;-69
2021/04/14 04:38:33;;;;;;;22.77;12.57;;;5.30;98.20;;;;;;4763730;30;20024;-69
2021/04/14 04:40:59;;;;;;;28.27;13.30;;;5.30;98.20;;;;;;4763714;30;20036;-69
2021/04/14 04:43:24;;;;;;;23.83;12.88;;;5.30;98.10;;;;;;4763232;30;20123;-69
2021/04/14 04:45:51;;;;;;;36.80;12.43;;;5.30;98.20;;;;;;4763590;30;20136;-69
2021/04/14 04:48:18;;;;;;;25.42;11.50;;;5.30;97.90;;;;;;4761667;30;20050;-69
2021/04/14 04:50:44;;;;;;;29.90;11.68;;;5.30;97.70;;;;;;4763755;30;20028;-69
2021/04/14 04:53:14;;;;;;;24.00;11.48;;;5.30;97.90;;;;;;4763424;30;20032;-69
2021/04/14 04:55:44;;;;;;;29.38;11.10;;;5.30;97.60;;;;;;4774787;30;20077;-69
2021/04/14 04:58:11;;;;;;;23.25;11.23;;;5.40;97.50;;;;;;4763064;30;20063;-69
2021/04/14 05:00:37;;;;;;;27.88;11.07;;;5.40;97.40;;;;;;4761308;30;20032;-69
2021/04/14 05:03:06;;;;;;;23.55;11.57;;;5.40;97.50;;;;;;4763142;30;20034;-71
2021/04/14 05:05:35;;;;;;;28.48;11.60;;;5.40;97.10;;;;;;4775436;30;20112;-69
2021/04/14 05:08:00;;;;;;;22.17;11.52;;;5.50;97.20;;;;;;4763368;30;20195;-69
2021/04/14 05:10:26;;;;;;;18.67;11.15;;;5.50;97.10;;;;;;4762379;30;20066;-69
2021/04/14 05:12:53;;;;;;;25.08;11.35;;;5.50;97.20;;;;;;4763272;30;20051;-69
2021/04/14 05:15:25;;;;;;;;;;;5.50;97.10;;;;;;4763658;30;20051;-69
2021/04/14 05:17:51;;;;;;;28.83;12.77;;;5.50;97.30;;;;;;4763016;30;19910;-69
2021/04/14 05:20:20;;;;;;;17.70;11.27;;;5.60;97.30;;;;;;4757346;30;20039;-69
2021/04/14 05:22:46;;;;;;;28.65;12.10;;;5.70;96.80;;;;;;4762022;30;20031;-69
2021/04/14 05:25:17;;;;;;;18.50;11.52;;;5.70;96.80;;;;;;4762742;30;20024;-69
2021/04/14 05:27:43;;;;;;;26.42;10.88;;;5.80;97.00;;;;;;4746623;30;20036;-69
2021/04/14 05:30:12;;;;;;;21.40;11.23;;;5.80;96.50;;;;;;4758107;30;20344;-69
2021/04/14 05:32:38;;;;;;;19.75;11.35;;;5.70;96.40;;;;;;4761326;30;20039;-69
2021/04/14 05:35:05;;;;;;;25.95;12.00;;;5.70;96.40;;;;;;4762275;30;20040;-69
2021/04/14 05:37:31;;;;;;;23.02;11.38;;;5.90;96.60;;;;;;4760230;30;20040;-69
2021/04/14 05:39:56;;;;;;;23.25;11.55;;;5.90;96.20;;;;;;4759365;30;20051;-69
2021/04/14 05:42:22;;;;;;;24.67;10.30;;;6.00;96.30;;;;;;4760880;30;20056;-69
2021/04/14 05:44:49;;;;;;;21.60;10.73;;;6.00;95.90;;;;;;4740052;30;20028;-69
2021/04/14 05:47:15;;;;;;;15.70;9.63;;;6.10;95.80;;;;;;4744414;30;20056;-69
2021/04/14 05:49:41;;;;;;;18.38;10.95;;;6.20;95.60;;;;;;4760255;30;20785;-69
2021/04/14 05:52:07;;;;;;;20.55;10.77;;;6.20;95.10;;;;;;4745896;30;20044;-69
2021/04/14 05:54:33;;;;;;;16.33;9.45;;;6.20;95.30;;;;;;4744817;30;20035;-69
2021/04/14 05:56:59;;;;;;;22.17;10.85;;;6.30;95.10;;;;;;4745219;30;20233;-69
2021/04/14 05:59:25;;;;;;;21.60;9.02;;;6.40;95.30;;;;;;4760052;30;20040;-69
2021/04/14 06:01:51;;;;;;;24.42;9.88;;;6.30;94.90;;;;;;4752642;30;20326;-69
2021/04/14 06:04:17;;;;;;;24.55;10.13;;;6.30;94.30;;;;;;4759993;30;20254;-69
2021/04/14 06:06:42;;;;;;;25.73;9.55;;;6.40;94.80;;;;;;4759199;30;20031;-69
2021/04/14 06:09:09;;;;;;;18.70;10.10;;;6.40;93.80;;;;;;4749873;30;20231;-69
2021/04/14 06:11:36;;;;;;;22.77;10.95;;;6.40;93.90;;;;;;4760855;30;20115;-69
2021/04/14 06:14:03;;;;;;;23.95;9.32;;;6.50;94.50;;;;;;4761276;30;20082;-69
2021/04/14 06:16:29;;;;;;;11.25;8.57;;;6.60;94.10;;;;;;4762238;30;20163;-69
2021/04/14 06:18:55;;;;;;;18.23;8.70;;;6.40;92.90;;;;;;4762024;30;20036;-69
2021/04/14 06:21:21;;;;;;;18.05;9.02;;;6.50;93.80;;;;;;4759975;30;20152;-69
2021/04/14 06:23:47;;;;;;;21.27;8.53;;;6.50;93.20;;;;;;4781135;30;20035;-69
2021/04/14 06:26:24;;;;;;;15.90;7.25;;;6.50;93.30;;;;;;4775517;30;20107;-69
2021/04/14 06:28:52;;;;;;;14.73;8.02;;;6.60;93.00;;;;;;4760608;30;20085;-69
2021/04/14 06:31:18;;;;;;;14.52;7.78;;;6.50;92.70;;;;;;4755260;30;20397;-69
2021/04/14 06:33:48;;;;;;;29.25;15.02;;;6.60;93.40;;;;;;4761537;30;20020;-69
2021/04/14 06:36:14;;;;;;;20.90;8.10;;;6.70;93.70;;;;;;4760111;30;20087;-69
2021/04/14 06:38:43;;;;;;;16.60;7.22;;;6.80;93.20;;;;;;4761681;30;20095;-69
2021/04/14 06:44:09;;;;;;;14.13;7.78;;;6.80;92.60;;;;;;4759482;30;20031;-69
2021/04/14 06:46:37;;;;;;;17.03;8.40;;;6.80;92.20;;;;;;4761074;30;20047;-70
2021/04/14 06:49:09;;;;;;;16.25;8.75;;;6.80;92.60;;;;;;4761167;30;20289;-69
2021/04/14 06:51:52;;;;;;;18.45;9.63;;;6.90;92.10;;;;;;4759934;30;20196;-69
2021/04/14 06:54:34;;;;;;;13.88;8.48;;;7.00;92.20;;;;;;4758068;30;20593;-69
2021/04/14 06:57:04;;;;;;;16.15;8.48;;;7.00;91.70;;;;;;4759707;30;20361;-69
2021/04/14 06:59:33;;;;;;;13.18;7.40;;;7.20;92.00;;;;;;4761179;30;20048;-69
2021/04/14 07:02:10;;;;;;;15.93;8.27;;;7.30;91.30;;;;;;4761174;30;20025;-69
2021/04/14 07:04:44;;;;;;;15.70;8.70;;;7.20;91.10;;;;;;4760508;30;20036;-69
2021/04/14 07:07:18;;;;;;;15.98;8.32;;;7.20;91.70;;;;;;4761410;30;20024;-69
2021/04/14 07:09:49;;;;;;;21.83;8.98;;;7.20;91.10;;;;;;4759308;30;20039;-69
2021/04/14 07:12:21;;;;;;;17.88;8.60;;;7.30;91.50;;;;;;4761262;30;20040;-69
2021/04/14 07:14:51;;;;;;;17.58;8.77;;;7.40;91.10;;;;;;4781707;30;20220;-69
2021/04/14 07:17:23;;;;;;;16.63;7.80;;;7.60;91.10;;;;;;4761263;30;20036;-69
2021/04/14 07:19:59;;;;;;;18.13;8.30;;;7.60;90.40;;;;;;4758217;30;20036;-69
2021/04/14 07:23:02;;;;;;;14.73;7.60;;;7.70;89.40;;;;;;4775827;30;20320;-70
2021/04/14 07:25:41;;;;;;;13.40;7.38;;;7.70;90.20;;;;;;4757719;30;20021;-69
2021/04/14 07:28:22;;;;;;;19.45;7.53;;;7.80;90.00;;;;;;4761353;30;20032;-69
2021/04/14 07:31:21;;;;;;;18.05;7.57;;;7.80;89.00;;;;;;4761560;30;20036;-69
2021/04/14 07:34:09;;;;;;;15.20;7.45;;;7.90;88.30;;;;;;4760141;30;20067;-69
2021/04/14 07:37:00;;;;;;;13.48;7.18;;;7.90;89.00;;;;;;4762161;30;20253;-70
2021/04/14 07:39:29;;;;;;;11.85;6.57;;;7.90;85.60;;;;;;4756546;30;20044;-69
2021/04/14 07:42:32;;;;;;;12.85;6.22;;;7.90;86.80;;;;;;4760296;30;20400;-69
2021/04/14 07:45:10;;;;;;;14.85;6.82;;;8.10;87.80;;;;;;4760001;30;20036;-69
2021/04/14 07:47:41;;;;;;;19.17;7.18;;;8.10;85.60;;;;;;4760571;30;20044;-69
2021/04/14 07:50:08;;;;;;;13.23;5.70;;;8.20;86.00;;;;;;4761090;30;20226;-69
2021/04/14 07:52:35;;;;;;;13.55;6.85;;;8.10;83.70;;;;;;4745570;30;20107;-69
2021/04/14 07:55:01;;;;;;;9.85;5.72;;;8.10;82.80;;;;;;4760020;30;20089;-69
2021/04/14 07:57:53;;;;;;;13.47;6.53;;;8.10;83.60;;;;;;4761098;30;20036;-69
2021/04/14 08:00:38;;;;;;;11.40;6.75;;;8.10;82.80;;;;;;4744074;30;20052;-69
2021/04/14 08:03:27;;;;;;;13.15;6.07;;;8.20;83.80;;;;;;4759814;30;20044;-70
2021/04/14 08:06:05;;;;;;;25.17;8.32;;;8.30;82.60;;;;;;4761685;30;20064;-69
2021/04/14 08:08:31;;;;;;;15.57;6.07;;;8.40;84.60;;;;;;4762347;30;20035;-69
2021/04/14 08:11:07;;;;;;;15.27;6.25;;;8.60;82.90;;;;;;4761790;30;20359;-69
2021/04/14 08:13:40;;;;;;;8.15;5.00;;;8.70;83.10;;;;;;4761331;30;20036;-69
2021/04/14 08:16:11;;;;;;;14.23;6.00;;;8.70;80.10;;;;;;4761809;30;20052;-70
2021/04/14 08:18:52;;;;;;;9.15;5.90;;;8.80;81.30;;;;;;4747158;30;20044;-69
2021/04/14 08:21:34;;;;;;;16.13;5.45;;;9.00;80.60;;;;;;4762020;30;20036;-69
2021/04/14 08:24:04;;;;;;;13.05;5.88;;;8.90;76.30;;;;;;4761481;30;20052;-69
2021/04/14 08:26:31;;;;;;;11.20;5.88;;;9.00;77.50;;;;;;4760952;30;20099;-69
2021/04/14 08:29:11;;;;;;;7.80;4.87;;;8.90;77.40;;;;;;4747346;30;20079;-69
2021/04/14 08:31:46;;;;;;;13.25;5.75;;;9.00;76.90;;;;;;4746715;30;20286;-69
2021/04/14 08:34:21;;;;;;;11.57;5.82;;;9.00;77.50;;;;;;4746675;30;20028;-69
2021/04/14 08:37:13;;;;;;;10.05;5.85;;;9.20;75.10;;;;;;4733983;30;20072;-69
2021/04/14 08:40:09;;;;;;;22.23;6.93;;;9.30;74.90;;;;;;4762237;30;20089;-69
2021/04/14 08:42:38;;;;;;;12.20;7.65;;;9.40;74.30;;;;;;4762064;30;20085;-69
2021/04/14 08:45:04;;;;;;;14.93;7.30;;;9.50;75.60;;;;;;4773740;30;20110;-69
2021/04/14 08:47:34;;;;;;;16.70;6.80;;;9.50;73.70;;;;;;4758554;30;20067;-69
2021/04/14 08:50:08;;;;;;;14.00;6.85;;;9.30;74.50;;;;;;4759028;30;20398;-69
2021/04/14 08:52:43;;;;;;;10.90;6.88;;;9.40;76.00;;;;;;4747459;30;20048;-69
2021/04/14 08:55:10;;;;;;;11.50;6.90;;;9.40;73.20;;;;;;4762979;30;20039;-69
2021/04/14 08:57:36;;;;;;;12.73;7.70;;;9.40;73.00;;;;;;4762726;30;20043;-69
2021/04/14 09:00:05;;;;;;;19.00;8.27;;;9.30;71.90;;;;;;4774456;30;20032;-69
2021/04/14 09:02:33;;;;;;;14.02;6.70;;;9.60;73.50;;;;;;4754241;30;20113;-69
2021/04/14 09:04:59;;;;;;;;;;;9.60;72.00;;;;;;4769670;30;20036;-69
2021/04/14 09:07:34;;;;;;;15.83;7.80;;;9.70;74.20;;;;;;4773319;30;19914;-69
2021/04/14 09:10:05;;;;;;;17.02;8.00;;;9.70;70.20;;;;;;4776860;30;20043;-69
2021/04/14 09:12:42;;;;;;;15.70;7.72;;;9.80;72.00;;;;;;4772386;30;20047;-69
2021/04/14 09:15:13;;;;;;;13.48;6.63;;;9.70;70.10;;;;;;4758648;30;20036;-69
2021/04/14 09:17:44;;;;;;;16.33;7.88;;;9.70;69.60;;;;;;4760158;30;20063;-69
2021/04/14 09:20:23;;;;;;;14.55;7.95;;;9.60;71.10;;;;;;4762349;30;20107;-69
2021/04/14 09:23:13;;;;;;;15.23;7.55;;;9.70;71.30;;;;;;4762157;30;20082;-69
2021/04/14 09:25:49;;;;;;;12.52;7.97;;;9.70;73.70;;;;;;4759210;30;20036;-69
2021/04/14 09:28:28;;;;;;;18.10;7.95;;;9.90;72.60;;;;;;4762004;30;20311;-69
2021/04/14 09:30:56;;;;;;;15.15;6.93;;;10.20;71.90;;;;;;4762187;30;20099;-69
2021/04/14 09:33:46;;;;;;;10.55;6.88;;;10.30;69.20;;;;;;4760905;30;20361;-69
2021/04/14 09:36:26;;;;;;;11.80;7.15;;;10.60;69.40;;;;;;4760365;30;20059;-69
2021/04/14 09:38:53;;;;;;;10.70;6.43;;;10.80;68.90;;;;;;4762075;30;20088;-69
2021/04/14 09:41:25;;;;;;;11.00;6.65;;;11.00;67.80;;;;;;4762184;30;20063;-69
2021/04/14 09:43:57;;;;;;;16.77;7.70;;;11.30;67.40;;;;;;4762131;30;20032;-69
2021/04/14 09:46:31;;;;;;;15.07;7.82;;;11.50;65.40;;;;;;4760292;30;20114;-70
2021/04/14 09:49:12;;;;;;;15.50;6.53;;;11.50;64.90;;;;;;4762008;30;20024;-69
2021/04/14 09:51:40;;;;;;;9.85;5.78;;;11.50;63.70;;;;;;4746580;30;20024;-69
2021/04/14 09:54:18;;;;;;;9.52;5.65;;;11.30;62.10;;;;;;4762061;30;20028;-70
2021/04/14 09:56:49;;;;;;;15.70;6.07;;;11.00;63.00;;;;;;4754884;30;20020;-69
2021/04/14 09:59:28;;;;;;;12.65;6.30;;;10.80;65.40;;;;;;4742878;30;20036;-69
2021/04/14 10:01:59;;;;;;;14.27;6.13;;;10.80;65.80;;;;;;4757626;30;20028;-69
2021/04/14 10:04:26;;;;;;;9.15;5.40;;;10.80;66.00;;;;;;4761082;30;20028;-69
2021/04/14 10:07:03;;;;;;;13.48;6.32;;;10.70;63.60;;;;;;4770639;30;20338;-70
2021/04/14 10:09:36;;;;;;;15.65;7.78;;;10.60;64.60;;;;;;4759051;30;20369;-69
2021/04/14 10:12:16;;;;;;;14.50;7.47;;;10.50;63.10;;;;;;4737346;30;20121;-70
2021/04/14 10:14:48;;;;;;;9.20;5.18;;;10.40;62.70;;;;;;4778369;30;20035;-69
2021/04/14 10:17:17;;;;;;;12.73;6.63;;;10.10;62.50;;;;;;4760109;30;20230;-69
2021/04/14 10:19:43;;;;;;;13.05;6.88;;;10.10;63.70;;;;;;4759718;30;20043;-69
2021/04/14 10:22:39;;;;;;;14.63;6.30;;;10.30;65.40;;;;;;4777157;30;20047;-69
2021/04/14 10:25:05;;;;;;;;;;;10.30;63.80;;;;;;4737749;30;20052;-69
2021/04/14 10:27:31;;;;;;;15.83;6.97;;;10.30;63.50;;;;;;4756332;30;20213;-69
2021/04/14 10:30:00;;;;;;;9.50;5.75;;;10.30;64.20;;;;;;4758331;30;20059;-69
2021/04/14 10:32:28;;;;;;;12.05;6.68;;;10.20;64.60;;;;;;4744139;30;20044;-69
2021/04/14 10:35:04;;;;;;;17.02;6.15;;;10.40;66.60;;;;;;4759284;30;20040;-69
2021/04/14 10:37:30;;;;;;;12.47;6.10;;;10.50;64.50;;;;;;4744236;30;20051;-69
2021/04/14 10:40:09;;;;;;;10.70;6.30;;;10.30;64.60;;;;;;4759127;30;20239;-69
2021/04/14 10:42:35;;;;;;;20.25;7.40;;;10.20;67.50;;;;;;4759163;30;20035;-69
2021/04/14 10:45:07;;;;;;;14.57;7.30;;;10.30;67.10;;;;;;4759033;30;20036;-69
2021/04/14 10:47:39;;;;;;;15.95;7.75;;;10.40;67.40;;;;;;4758649;30;20054;-69
2021/04/14 10:50:27;;;;;;;14.38;7.18;;;10.70;64.80;;;;;;4745038;30;20032;-69
2021/04/14 10:53:03;;;;;;;11.35;6.78;;;10.90;62.30;;;;;;4759035;30;20039;-69
2021/04/14 10:55:36;;;;;;;16.20;7.40;;;11.10;62.70;;;;;;4759360;30;20051;-69
2021/04/14 10:58:05;;;;;;;9.60;6.63;;;11.30;62.30;;;;;;4744570;30;20032;-70
2021/04/14 11:00:39;;;;;;;14.95;6.40;;;11.30;59.20;;;;;;4744260;30;20036;-70
2021/04/14 11:03:08;;;;;;;13.68;5.93;;;11.10;60.50;;;;;;4759404;30;20043;-71
2021/04/14 11:05:38;;;;;;;12.15;6.40;;;10.70;68.00;;;;;;4760505;30;20315;-70
2021/04/14 11:08:06;;;;;;;14.45;7.75;;;10.40;69.20;;;;;;4760239;30;20028;-71
2021/04/14 11:10:38;;;;;;;13.77;5.95;;;10.20;69.40;;;;;;4780361;30;20085;-70
2021/04/14 11:13:06;;;;;;;9.20;7.03;;;10.40;67.40;;;;;;4758081;30;20038;-70
2021/04/14 11:15:39;;;;;;;13.65;8.48;;;10.60;67.80;;;;;;4760177;30;20059;-69
2021/04/14 11:18:07;;;;;;;16.70;6.30;;;10.90;64.40;;;;;;4774571;30;20103;-70
2021/04/14 11:23:46;;;;;;;10.20;4.68;;;10.80;55.70;;;;;;4741936;30;20037;-70
2021/04/14 11:26:20;;;;;;;8.82;4.72;;;11.00;53.90;;;;;;4742045;30;20325;-70
2021/04/14 11:28:47;;;;;;;17.08;6.50;;;11.00;52.90;;;;;;4738400;30;20124;-70
2021/04/14 11:31:25;;;;;;;13.18;5.50;;;11.10;57.50;;;;;;4740345;30;20087;-70
2021/04/14 11:33:51;;;;;;;14.20;5.47;;;11.10;53.10;;;;;;4741676;30;20126;-70
2021/04/14 11:36:37;;;;;;;10.68;5.28;;;11.30;54.60;;;;;;4742479;30;20324;-70
2021/04/14 11:39:19;;;;;;;9.48;4.55;;;11.40;52.30;;;;;;4743358;30;20052;-69
2021/04/14 11:41:47;;;;;;;10.10;4.55;;;11.60;53.70;;;;;;4745386;30;20123;-70
2021/04/14 11:44:19;;;;;;;10.82;4.25;;;12.00;54.30;;;;;;4745159;30;20055;-71
2021/04/14 11:46:54;;;;;;;8.98;4.03;;;12.20;49.70;;;;;;4729788;30;20053;-71
2021/04/14 11:49:33;;;;;;;12.15;4.40;;;12.60;50.00;;;;;;4744555;30;20037;-70
2021/04/14 11:52:13;;;;;;;10.93;3.33;;;12.70;50.70;;;;;;4744417;30;20611;-70
2021/04/14 11:54:39;;;;;;;12.80;3.53;;;12.80;47.30;;;;;;4741041;30;20040;-70
2021/04/14 11:57:24;;;;;;;9.82;3.47;;;12.70;44.40;;;;;;4744754;30;20356;-70
2021/04/14 12:00:03;;;;;;;15.38;4.70;;;12.50;45.00;;;;;;4747476;30;20354;-70
2021/04/14 12:02:34;;;;;;;12.43;3.45;;;12.30;47.10;;;;;;4763171;30;20037;-69
2021/04/14 12:05:03;;;;;;;9.77;3.03;;;12.10;48.40;;;;;;4764051;30;20038;-70
2021/04/14 12:07:29;;;;;;;6.90;3.35;;;12.00;48.00;;;;;;4764122;30;20099;-71
2021/04/14 12:09:55;;;;;;;13.88;5.40;;;11.80;45.20;;;;;;4764066;30;20307;-70
2021/04/14 12:12:21;;;;;;;18.08;7.35;;;11.80;46.40;;;;;;4764167;30;20245;-70
2021/04/14 12:14:47;;;;;;;7.83;3.50;;;11.90;45.10;;;;;;4764351;30;20032;-71
2021/04/14 12:17:14;;;;;;;11.68;3.13;;;12.10;45.40;;;;;;4763957;30;20328;-70
2021/04/14 12:19:40;;;;;;;6.68;2.65;;;12.30;45.70;;;;;;4777669;30;20059;-70
2021/04/14 12:22:07;;;;;;;8.40;3.17;;;12.80;44.40;;;;;;4777604;30;20044;-71
2021/04/14 12:24:33;;;;;;;6.97;2.90;;;12.80;43.70;;;;;;4764991;30;20048;-71
2021/04/14 12:26:59;;;;;;;14.85;3.30;;;13.20;46.20;;;;;;4764141;30;20032;-71
2021/04/14 12:29:25;;;;;;;10.10;3.75;;;13.20;43.70;;;;;;4764214;30;20051;-71
2021/04/14 12:31:51;;;;;;;5.57;2.55;;;13.40;42.80;;;;;;4777421;30;20035;-70
2021/04/14 12:34:17;;;;;;;8.97;2.53;;;13.40;41.20;;;;;;4763987;30;20099;-71
2021/04/14 12:36:43;;;;;;;12.40;3.20;;;13.10;39.90;;;;;;4762353;30;20066;-71
2021/04/14 12:39:09;;;;;;;7.97;2.88;;;13.00;41.30;;;;;;4763542;30;20032;-71
2021/04/14 12:41:36;;;;;;;7.03;3.95;;;12.80;43.00;;;;;;4763862;30;20039;-71
2021/04/14 12:44:03;;;;;;;9.45;4.57;;;12.50;45.70;;;;;;4759482;30;20097;-71
2021/04/14 12:46:29;;;;;;;11.77;3.90;;;12.10;46.10;;;;;;4762014;30;20048;-71
2021/04/14 12:48:55;;;;;;;8.77;3.85;;;12.00;46.80;;;;;;4760720;30;20091;-71
2021/04/14 12:51:29;;;;;;;9.82;3.70;;;12.00;46.80;;;;;;4763517;30;20320;-70
2021/04/14 12:54:06;;;;;;;13.05;4.22;;;11.90;46.50;;;;;;4763650;30;20121;-71
2021/04/14 12:56:37;;;;;;;11.68;5.93;;;11.90;48.50;;;;;;4762347;30;20028;-70
2021/04/14 12:59:14;;;;;;;9.75;5.00;;;11.80;51.30;;;;;;4763379;30;20020;-70
2021/04/14 13:01:41;;;;;;;11.13;4.50;;;11.60;51.70;;;;;;4763768;30;20347;-70
2021/04/14 13:04:27;;;;;;;14.15;4.85;;;11.60;51.40;;;;;;4763444;30;20227;-70
2021/04/14 13:06:58;;;;;;;15.32;4.72;;;11.50;49.40;;;;;;4763457;30;20040;-70
2021/04/14 13:09:25;;;;;;;13.18;4.68;;;11.40;49.00;;;;;;4777078;30;20106;-70
2021/04/14 13:11:54;;;;;;;;;;;11.40;50.50;;;;;;4762890;30;20036;-70
2021/04/14 13:14:20;;;;;;;10.25;4.78;;;11.70;50.00;;;;;;4763475;30;19950;-70
2021/04/14 13:17:05;;;;;;;8.32;4.43;;;11.80;50.60;;;;;;4762072;30;20385;-70
2021/04/14 13:19:31;;;;;;;14.80;5.18;;;11.90;48.50;;;;;;4763119;30;20067;-70
2021/04/14 13:22:35;;;;;;;10.13;4.18;;;12.20;49.60;;;;;;4747503;30;20331;-70
2021/04/14 13:25:23;;;;;;;8.73;4.35;;;12.30;50.20;;;;;;4776916;30;20246;-71
2021/04/14 13:28:10;;;;;;;10.95;4.35;;;12.70;49.90;;;;;;4772268;30;20358;-71
2021/04/14 13:31:05;;;;;;;8.85;4.15;;;12.80;46.20;;;;;;4762936;30;20040;-71
2021/04/14 13:33:55;;;;;;;8.02;4.03;;;12.50;45.40;;;;;;4761058;30;20123;-71
2021/04/14 13:36:25;;;;;;;9.80;5.13;;;11.90;46.80;;;;;;4760955;30;20046;-70
2021/04/14 13:38:57;;;;;;;10.93;5.07;;;11.60;46.70;;;;;;4746280;30;20090;-71
2021/04/14 13:41:40;;;;;;;10.75;4.70;;;11.50;48.10;;;;;;4746097;30;20296;-70
2021/04/14 13:44:18;;;;;;;12.30;4.57;;;11.70;45.90;;;;;;4746388;30;20048;-70
2021/04/14 13:47:21;;;;;;;11.90;5.18;;;11.60;46.10;;;;;;4745731;30;20059;-71
2021/04/14 13:49:51;;;;;;;11.23;5.22;;;11.80;46.70;;;;;;4687560;30;20072;-71
2021/04/14 13:52:26;;;;;;;17.17;6.43;;;11.80;46.20;;;;;;4690819;30;20073;-70
2021/04/14 13:54:56;;;;;;;13.25;5.82;;;11.90;47.90;;;;;;4690853;30;20069;-70
2021/04/14 13:57:26;;;;;;;14.73;5.72;;;12.10;46.70;;;;;;4690565;30;20107;-71
2021/04/14 13:59:56;;;;;;;10.73;6.03;;;12.20;48.10;;;;;;4676190;30;20140;-70
2021/04/14 14:02:39;;;;;;;8.40;5.60;;;12.10;47.30;;;;;;4688424;30;20048;-70
2021/04/14 14:05:11;;;;;;;14.68;6.43;;;11.60;47.50;;;;;;4690437;30;20294;-70
2021/04/14 14:07:58;;;;;;;10.15;6.18;;;11.50;47.10;;;;;;4676015;30;20257;-70
2021/04/14 14:10:31;;;;;;;;;;;11.40;47.00;;;;;;4688268;30;20083;-71
2021/04/14 14:13:18;;;;;;;11.90;6.25;;;11.50;46.60;;;;;;4691042;30;20199;-71
2021/04/14 14:16:14;;;;;;;9.38;5.50;;;11.60;45.90;;;;;;4681411;30;20131;-70
2021/04/14 14:19:01;;;;;;;16.17;5.68;;;11.60;45.10;;;;;;4690287;30;20034;-70
2021/04/14 14:21:29;;;;;;;11.50;5.97;;;11.50;44.80;;;;;;4686653;30;20049;-70
2021/04/14 14:23:55;;;;;;;12.43;6.20;;;11.40;43.90;;;;;;4690631;30;20033;-70
2021/04/14 14:26:31;;;;;;;25.42;14.48;;;11.50;42.60;;;;;;4716829;30;20044;-70
2021/04/14 14:28:58;;;;;;;11.97;6.97;;;11.50;44.20;;;;;;4743304;30;20092;-70
2021/04/14 14:31:25;;;;;;;10.55;5.78;;;11.60;43.90;;;;;;4757863;30;20032;-70
2021/04/14 14:33:53;;;;;;;11.73;5.40;;;11.60;42.70;;;;;;4741937;30;20024;-70
2021/04/14 14:36:37;;;;;;;10.48;5.45;;;11.60;42.70;;;;;;4743483;30;20189;-70
2021/04/14 14:39:09;;;;;;;11.57;5.82;;;11.50;42.00;;;;;;4742344;30;20028;-70
2021/04/14 14:41:37;;;;;;;11.93;4.90;;;11.50;42.30;;;;;;4741898;30;20028;-70
2021/04/14 14:44:09;;;;;;;11.50;5.05;;;11.50;42.60;;;;;;4759347;30;20032;-70
2021/04/14 14:46:40;;;;;;;12.10;4.97;;;11.30;43.30;;;;;;4748190;30;20048;-70
2021/04/14 14:49:38;;;;;;;12.70;4.95;;;11.30;42.30;;;;;;4757305;30;20327;-70
2021/04/14 14:52:05;;;;;;;11.70;3.90;;;11.30;42.10;;;;;;4758455;30;20043;-71
2021/04/14 14:54:33;;;;;;;9.77;4.47;;;11.30;41.80;;;;;;4757743;30;20020;-70
2021/04/14 14:57:12;;;;;;;11.57;5.15;;;11.20;40.10;;;;;;4774346;30;20024;-70
2021/04/14 14:59:40;;;;;;;16.80;5.55;;;11.20;40.80;;;;;;4760319;30;20047;-70
2021/04/14 15:02:15;;;;;;;8.27;4.40;;;11.30;42.10;;;;;;4760283;30;20204;-70
2021/04/14 15:04:41;;;;;;;14.43;4.45;;;11.30;41.90;;;;;;4761196;30;20032;-70
2021/04/14 15:07:08;;;;;;;12.38;4.80;;;11.20;42.10;;;;;;4759178;30;20031;-70
2021/04/14 15:09:33;;;;;;;;;;;11.20;42.80;;;;;;4760239;30;20095;-70
2021/04/14 15:11:59;;;;;;;8.13;4.73;;;11.20;42.50;;;;;;4774359;30;19909;-70
2021/04/14 15:14:25;;;;;;;10.68;5.18;;;11.10;42.20;;;;;;4760344;30;20326;-70
2021/04/14 15:16:50;;;;;;;8.98;4.60;;;11.10;40.80;;;;;;4757517;30;20063;-70
2021/04/14 15:19:19;;;;;;;15.05;6.72;;;11.10;41.10;;;;;;4760784;30;20085;-70
2021/04/14 15:21:49;;;;;;;7.95;4.55;;;11.10;40.90;;;;;;4759716;30;20032;-70
2021/04/14 15:24:19;;;;;;;18.13;6.15;;;11.00;41.80;;;;;;4761298;30;20036;-70
2021/04/14 15:26:49;;;;;;;13.70;4.38;;;11.10;42.20;;;;;;4761417;30;20055;-70
2021/04/14 15:29:16;;;;;;;9.13;4.72;;;11.00;41.70;;;;;;4760146;30;20036;-70
2021/04/14 15:31:41;;;;;;;11.13;5.38;;;11.10;42.40;;;;;;4759937;30;20109;-70
2021/04/14 15:34:08;;;;;;;9.90;3.85;;;10.90;40.90;;;;;;4761149;30;20032;-69
2021/04/14 15:36:35;;;;;;;11.93;5.17;;;10.90;40.70;;;;;;4760025;30;20035;-70
2021/04/14 15:39:08;;;;;;;10.10;4.15;;;10.80;41.20;;;;;;4760720;30;20031;-69
2021/04/14 15:41:35;;;;;;;9.52;4.07;;;10.80;43.00;;;;;;4760126;30;20024;-70
2021/04/14 15:44:02;;;;;;;9.60;4.32;;;10.80;42.20;;;;;;4760948;30;20028;-70
2021/04/14 15:46:29;;;;;;;9.47;4.53;;;10.70;41.90;;;;;;4760104;30;20111;-69
2021/04/14 15:48:59;;;;;;;11.88;4.88;;;10.80;41.50;;;;;;4757963;30;20081;-69
2021/04/14 15:51:25;;;;;;;8.90;4.00;;;10.90;41.90;;;;;;4760690;30;20028;-69
2021/04/14 15:53:52;;;;;;;8.45;3.85;;;10.80;41.00;;;;;;4774278;30;20057;-69
2021/04/14 15:56:18;;;;;;;7.90;4.35;;;10.90;41.20;;;;;;4760934;30;20048;-69